Nearby METAR Reports

 

EGMC - Southend-On-Sea, United Kingdom
Distance from station: NE 10km
Updated: 19/01/2020 02:50
Clear
Clear
 Wind from NNW
Wind: NNW 8 mph , 13 km/h
Temperature: 2°C
Wind Chill: -1°C
Dew Point: 0°C
Humidity: 87%
Barometer: 1038 hPa
Summary: Clear
Visibility: greater than 7 miles , 10 km
2020/01/19 02:50 EGMC 190250Z 33007KT CAVOK 02/00 Q1038
EGLC - London City Airp, United Kingdom
Distance from station: W 37km
Updated: 19/01/2020 02:50
Clear
Clear
 Wind from WNW
Wind: WNW 5 mph , 7 km/h
Temperature: 4°C
Wind Chill: 2°C
Dew Point: 1°C
Humidity: 81%
Barometer: 1039 hPa
Clouds: Clear
Visibility: 6 miles , 10 km
2020/01/19 02:50 EGLC 190250Z AUTO 29004KT 270V010 9999 NCD 04/01 Q1039
EGKB - Biggin Hill, United Kingdom
Distance from station: WSW 45km
Updated: 18/01/2020 21:20
NOT Current
Clear
Clear
 Wind from WNW
Wind: WNW 7 mph , 11 km/h
Temperature: 2°C
Wind Chill: -1°C
Dew Point: 0°C
Humidity: 87%
Barometer: 1033 hPa
Summary: Clear
Visibility: greater than 7 miles , 10 km
2020/01/18 21:20 EGKB 182120Z 30006KT CAVOK 02/00 Q1033
 
EGSS - Stansted Airport, United Kingdom
Distance from station: NNW 48km
Updated: 19/01/2020 02:50
Clear
Clear
 Wind from NNW
Wind: NNW 6 mph , 9 km/h
Temperature: 1°C
Wind Chill: -2°C
Dew Point: 0°C
Humidity: 93%
Barometer: 1038 hPa
Clouds: Clear
Visibility: 6 miles , 10 km
2020/01/19 02:50 EGSS 190250Z AUTO 34005KT 9999 NCD 01/M00 Q1038
EGKK - London/Gatwick A, United Kingdom
Distance from station: SW 67km
Updated: 19/01/2020 02:50
Clear
Clear
 Wind from NNW
Wind: NNW 5 mph , 7 km/h
Temperature: 1°C
Wind Chill: -2°C
Dew Point: 0°C
Humidity: 93%
Barometer: 1038 hPa
Summary: Clear
Visibility: greater than 7 miles , 10 km
2020/01/19 02:50 EGKK 190250Z 34004KT CAVOK 01/M00 Q1038
EGMD - Lydd Airport, United Kingdom
Distance from station: SSE 67km
Updated: 19/01/2020 02:50
Clear
Clear
 Wind from NNW
Wind: NNW 10 mph , 17 km/h
Temperature: 1°C
Wind Chill: -3°C
Dew Point: 0°C
Humidity: 93%
Barometer: 1038 hPa
Clouds: Clear
Visibility: 6 miles , 10 km
2020/01/19 02:50 EGMD 190250Z AUTO 34009KT 9999 NCD 01/00 Q1038
 
EGWU - Northolt Raf, United Kingdom
Distance from station: W 69km
Updated: 19/01/2020 02:50
Mostly cloudy
Mostly cloudy
 Wind from NW
Wind: NW 2 mph , 4 km/h
Temperature: -2°C
Dew Point: -3°C
Humidity: 93%
Barometer: 1038 hPa
Clouds: Mostly cloudy
Visibility: 6 miles , 10 km
Cloud details: Mostly cloudy 4877 m
2020/01/19 02:50 EGWU 190250Z AUTO 31002KT 9999 // BKN160/// M02/M03 Q1038
EGLL - London/Heathrow, United Kingdom
Distance from station: W 72km
Updated: 19/01/2020 02:50
Clear
Clear
 Wind from NW
Wind: NW 2 mph , 4 km/h
Temperature: 1°C
Dew Point: 0°C
Humidity: 93%
Barometer: 1039 hPa
Clouds: Clear
Visibility: 6 miles , 10 km
2020/01/19 02:50 EGLL 190250Z AUTO 31002KT 9999 NCD 01/M00 Q1039 NOSIG
EGUW - Wattisham Raf, United Kingdom
Distance from station: NNE 72km
Updated: 19/01/2020 02:50
Clear
Clear
 Wind from NNW
Wind: NNW 9 mph , 15 km/h
Temperature: 1°C
Wind Chill: -3°C
Dew Point: 0°C
Humidity: 93%
Barometer: 1037 hPa
Clouds: Clear
Visibility: 6 miles , 10 km
2020/01/19 02:50 EGUW 190250Z AUTO 34008KT 9999 NCD 01/M00 Q1037
 
EGGW - Luton Airport, United Kingdom
Distance from station: WNW 76km
Updated: 19/01/2020 02:50
Clear
Clear
 Wind from N
Wind: N 10 mph , 17 km/h
Temperature: 1°C
Wind Chill: -3°C
Dew Point: 0°C
Humidity: 93%
Barometer: 1038 hPa
Clouds: Clear
Visibility: 6 miles , 10 km
2020/01/19 02:50 EGGW 190250Z AUTO 36009KT 9999 NCD 01/M00 Q1038
EGSC - Cambridge, United Kingdom
Distance from station: NNW 81km
Updated: 17/01/2020 17:50
NOT Current
Clear
Clear
 Wind from SW
Wind: SW 10 mph , 17 km/h
Temperature: 5°C
Wind Chill: 2°C
Dew Point: 2°C
Humidity: 81%
Barometer: 1015 hPa
Summary: Clear
Visibility: greater than 7 miles , 10 km
2020/01/17 17:50 EGSC 171750Z 23009KT CAVOK 05/02 Q1015